Time;durP1;ratioP1;P1;durP2;ratioP2;P2;SDS_P1;SDS_P2;PMS_P1;PMS_P2;Temp;Humidity;BMP_temperature;BMP_pressure;BME280_temperature;BME280_humidity;BME280_pressure;Samples;Min_cycle;Max_cycle;Signal;HPM_P1;HPM_P2
2024/04/19 00:01:49;;;;;;;;;;;;;;;12.94;55.90;99062.34;5419235;26;20382;-82
2024/04/19 00:04:14;;;;;;;;;;;;;;;12.97;55.61;99059.28;5417646;26;19929;-82
2024/04/19 00:06:39;;;;;;;;;;;;;;;12.97;55.26;99062.75;5419616;26;19929;-82
2024/04/19 00:09:04;;;;;;;;;;;;;;;12.93;53.03;99064.19;5417496;26;19937;-81
2024/04/19 00:11:30;;;;;;;;;;;;;;;12.96;52.94;99074.38;5417546;26;19936;-82
2024/04/19 00:13:55;;;;;;;;;;;;;;;13.01;52.74;99074.56;5419106;26;19929;-82
2024/04/19 00:16:21;;;;;;;;;;;;;;;13.03;52.50;99069.06;5417258;26;19936;-82
2024/04/19 00:18:46;;;;;;;;;;;;;;;13.00;51.91;99070.28;5416257;26;19994;-82
2024/04/19 00:21:11;;;;;;;;;;;;;;;13.02;52.32;99067.44;5419206;26;19936;-82
2024/04/19 00:23:37;;;;;;;;;;;;;;;12.99;51.96;99073.16;5419691;26;19932;-82
2024/04/19 00:26:02;;;;;;;;;;;;;;;13.02;51.82;99075.38;5419114;26;19937;-82
2024/04/19 00:28:27;;;;;;;;;;;;;;;12.98;52.45;99074.19;5418774;26;20389;-82
2024/04/19 00:30:56;;;;;;;;;;;;;;;13.01;52.77;99071.94;5417261;26;20358;-82
2024/04/19 00:33:21;;;;;;;;;;;;;;;13.02;52.61;99064.78;5418927;26;19970;-81
2024/04/19 00:35:47;;;;;;;;;;;;;;;13.00;51.90;99062.34;5417138;26;19929;-82
2024/04/19 00:38:12;;;;;;;;;;;;;;;13.00;52.29;99067.66;5419119;26;20301;-82
2024/04/19 00:40:37;;;;;;;;;;;;;;;13.01;51.91;99069.28;5417130;26;19933;-82
2024/04/19 00:43:03;;;;;;;;;;;;;;;13.01;53.12;99066.63;5417189;26;19936;-82
2024/04/19 00:45:28;;;;;;;;;;;;;;;13.00;52.81;99080.09;5417077;26;19937;-81
2024/04/19 00:47:54;;;;;;;;;;;;;;;12.97;53.27;99080.50;5419028;26;20290;-82
2024/04/19 00:50:19;;;;;;;;;;;;;;;12.91;51.94;99084.78;5418901;26;19940;-82
2024/04/19 00:52:44;;;;;;;;;;;;;;;12.87;52.32;99088.03;5418910;26;19936;-82
2024/04/19 00:55:10;;;;;;;;;;;;;;;12.89;51.06;99089.47;5418788;26;19936;-81
2024/04/19 00:57:35;;;;;;;;;;;;;;;12.92;52.28;99090.88;5416786;26;19936;-81
2024/04/19 01:00:02;;;;;;;;;;;;;;;12.95;52.38;99086.00;5418727;26;20439;-81
2024/04/19 01:02:28;;;;;;;;;;;;;;;12.97;52.06;99089.25;5418470;26;19929;-81
2024/04/19 01:04:53;;;;;;;;;;;;;;;13.01;51.87;99087.00;5446915;26;20281;-82
2024/04/19 01:07:18;;;;;;;;;;;;;;;12.99;52.57;99092.53;5418874;26;19937;-81
2024/04/19 01:09:44;;;;;;;;;;;;;;;12.99;52.41;99091.69;5416574;26;20287;-82
2024/04/19 01:12:09;;;;;;;;;;;;;;;12.98;52.80;99092.72;5446695;26;19933;-81
2024/04/19 01:14:34;;;;;;;;;;;;;;;12.95;52.69;99095.78;5416539;26;19941;-81
2024/04/19 01:16:59;;;;;;;;;;;;;;;12.97;53.25;99099.03;5418765;26;20609;-81
2024/04/19 01:19:25;;;;;;;;;;;;;;;12.96;52.58;99100.88;5418404;26;19939;-81
2024/04/19 01:21:50;;;;;;;;;;;;;;;12.96;52.66;99105.38;5418541;26;20443;-82
2024/04/19 01:24:54;;;;;;;;;;;;;;;12.93;52.62;99103.94;5418907;26;19998;-82
2024/04/19 01:27:20;;;;;;;;;;;;;;;12.87;52.51;99093.34;5344953;26;20273;-81
2024/04/19 01:29:45;;;;;;;;;;;;;;;12.82;53.13;99093.94;5314188;26;19930;-82
2024/04/19 01:32:10;;;;;;;;;;;;;;;12.78;52.75;99090.06;5358459;26;19937;-82
2024/04/19 01:34:35;;;;;;;;;;;;;;;12.72;53.73;99094.34;5421406;26;19937;-81
2024/04/19 01:37:01;;;;;;;;;;;;;;;12.70;53.51;99085.78;5431525;26;19960;-81
2024/04/19 01:39:26;;;;;;;;;;;;;;;12.62;54.25;99104.50;5416500;26;19961;-81
2024/04/19 01:41:53;;;;;;;;;;;;;;;12.60;54.69;99103.88;5418185;26;20374;-82
2024/04/19 01:44:19;;;;;;;;;;;;;;;12.59;54.88;99099.59;5418513;26;19929;-82
2024/04/19 01:46:44;;;;;;;;;;;;;;;12.60;54.46;99103.88;5415897;26;20391;-81
2024/04/19 01:49:09;;;;;;;;;;;;;;;12.57;54.67;99106.94;5418051;26;19939;-82
2024/04/19 01:51:34;;;;;;;;;;;;;;;12.59;54.53;99110.19;5417551;26;20290;-81
2024/04/19 01:54:00;;;;;;;;;;;;;;;12.60;55.11;99095.94;5416082;26;19933;-81
2024/04/19 01:56:25;;;;;;;;;;;;;;;12.60;54.70;99101.22;5417458;26;19944;-82
2024/04/19 01:58:50;;;;;;;;;;;;;;;12.61;54.07;99092.28;5417632;26;20251;-81
2024/04/19 02:01:17;;;;;;;;;;;;;;;12.65;54.47;99104.13;5415940;26;19929;-82
2024/04/19 02:03:42;;;;;;;;;;;;;;;12.65;55.14;99095.34;5415919;26;19941;-81
2024/04/19 02:06:11;;;;;;;;;;;;;;;12.67;54.13;99104.75;5415736;26;19994;-81
2024/04/19 02:08:37;;;;;;;;;;;;;;;12.62;52.87;99101.84;5417565;26;20282;-81
2024/04/19 02:11:03;;;;;;;;;;;;;;;12.60;52.95;99105.72;5415669;26;19929;-81
2024/04/19 02:13:28;;;;;;;;;;;;;;;12.59;52.88;99104.91;5417364;26;19929;-81
2024/04/19 02:15:53;;;;;;;;;;;;;;;12.62;52.34;99107.16;5415501;26;19936;-82
2024/04/19 02:18:18;;;;;;;;;;;;;;;12.60;52.60;99111.81;5417292;26;19929;-82
2024/04/19 02:20:44;;;;;;;;;;;;;;;12.57;52.64;99112.22;5417776;26;19929;-81
2024/04/19 02:23:09;;;;;;;;;;;;;;;12.58;52.25;99116.50;5415823;26;19936;-81
2024/04/19 02:25:35;;;;;;;;;;;;;;;12.61;52.26;99113.47;5415606;26;20002;-81
2024/04/19 02:30:59;;;;;;;;;;;;;;;12.60;52.50;99106.53;5417426;26;19952;-81
2024/04/19 02:33:24;;;;;;;;;;;;;;;12.59;51.77;99112.84;5417505;26;19998;-81
2024/04/19 02:35:50;;;;;;;;;;;;;;;12.62;52.43;99120.38;5415412;26;19940;-81
2024/04/19 02:38:15;;;;;;;;;;;;;;;12.62;52.28;99124.88;5417101;26;19936;-81
2024/04/19 02:40:40;;;;;;;;;;;;;;;12.64;52.91;99121.03;5415784;26;20258;-82
2024/04/19 02:43:05;;;;;;;;;;;;;;;12.62;52.96;99108.97;5418630;26;19929;-81
2024/04/19 02:45:31;;;;;;;;;;;;;;;12.61;52.90;99116.09;5418760;26;19937;-81
2024/04/19 02:47:56;;;;;;;;;;;;;;;12.61;53.22;99113.47;5420481;26;20255;-81
2024/04/19 02:50:21;;;;;;;;;;;;;;;12.59;53.05;99114.69;5420640;26;19929;-81
2024/04/19 02:52:46;;;;;;;;;;;;;;;12.51;52.68;99112.22;5420402;26;19928;-81
2024/04/19 02:55:12;;;;;;;;;;;;;;;12.48;52.79;99113.44;5420642;26;19929;-81
2024/04/19 02:57:37;;;;;;;;;;;;;;;12.47;53.16;99121.56;5418361;26;19930;-81
2024/04/19 03:00:03;;;;;;;;;;;;;;;12.43;53.43;99118.50;5418396;26;19929;-81
2024/04/19 03:02:28;;;;;;;;;;;;;;;12.41;53.70;99125.84;5418241;26;19928;-81
2024/04/19 03:04:54;;;;;;;;;;;;;;;12.44;54.25;99129.91;5418452;26;19939;-81
2024/04/19 03:07:19;;;;;;;;;;;;;;;12.45;53.97;99134.19;5420269;26;19941;-81
2024/04/19 03:09:46;;;;;;;;;;;;;;;12.41;53.59;99131.94;5419885;26;20256;-81
2024/04/19 03:12:11;;;;;;;;;;;;;;;12.36;53.52;99128.28;5420084;26;20382;-81
2024/04/19 03:14:37;;;;;;;;;;;;;;;12.34;53.63;99125.00;5418026;26;19933;-81
2024/04/19 03:17:02;;;;;;;;;;;;;;;12.33;53.68;99123.38;5419975;26;19929;-81
2024/04/19 03:19:28;;;;;;;;;;;;;;;12.28;54.05;99128.47;5418213;26;19933;-81
2024/04/19 03:21:53;;;;;;;;;;;;;;;12.25;53.88;99134.97;5418343;26;19929;-81
2024/04/19 03:24:18;;;;;;;;;;;;;;;12.14;54.13;99137.38;5418359;26;19970;-81
2024/04/19 03:26:43;;;;;;;;;;;;;;;12.11;54.32;99146.50;5420890;26;19936;-81
2024/04/19 03:29:09;;;;;;;;;;;;;;;11.98;54.49;99147.28;5424866;26;19944;-82
2024/04/19 03:31:34;;;;;;;;;;;;;;;11.95;54.32;99157.44;5426909;26;19994;-81
2024/04/19 03:34:00;;;;;;;;;;;;;;;11.95;54.28;99155.59;5418350;26;20283;-81
2024/04/19 03:36:25;;;;;;;;;;;;;;;11.98;54.59;99154.41;5418176;26;19933;-81
2024/04/19 03:38:50;;;;;;;;;;;;;;;12.06;54.28;99159.53;5417949;26;19929;-81
2024/04/19 03:41:16;;;;;;;;;;;;;;;12.12;54.18;99164.03;5420073;26;19984;-81
2024/04/19 03:45:40;;;;;;;;;;;;;;;12.14;53.65;99166.47;5418105;26;20001;-81
2024/04/19 03:46:27;;;;;;;;;;;;;;;12.12;53.59;99168.50;5419849;26;19929;-81
2024/04/19 03:48:52;;;;;;;;;;;;;;;12.11;53.58;99162.41;5419614;26;19929;-81
2024/04/19 03:51:17;;;;;;;;;;;;;;;12.07;53.27;99167.25;5419836;26;20386;-81
2024/04/19 03:53:43;;;;;;;;;;;;;;;12.02;53.30;99161.75;5416557;26;19933;-81
2024/04/19 03:56:08;;;;;;;;;;;;;;;11.96;53.46;99164.34;5417785;26;19941;-81
2024/04/19 03:58:33;;;;;;;;;;;;;;;11.97;53.92;99164.16;5417523;26;19940;-81
2024/04/19 04:01:02;;;;;;;;;;;;;;;11.98;53.89;99162.34;5417502;26;19937;-81
2024/04/19 04:03:27;;;;;;;;;;;;;;;11.98;53.81;99159.69;5419798;26;20367;-81
2024/04/19 04:05:53;;;;;;;;;;;;;;;11.97;53.87;99169.47;5417390;26;19940;-81
2024/04/19 04:08:18;;;;;;;;;;;;;;;11.97;53.67;99171.28;5419246;26;20336;-81
2024/04/19 04:10:43;;;;;;;;;;;;;;;11.97;53.51;99173.94;5419516;26;19975;-81
2024/04/19 04:13:09;;;;;;;;;;;;;;;11.95;53.81;99170.66;5417292;26;19933;-82
2024/04/19 04:15:34;;;;;;;;;;;;;;;11.92;53.75;99168.41;5417417;26;19929;-81
2024/04/19 04:18:01;;;;;;;;;;;;;;;11.91;53.62;99177.34;5419484;26;19932;-81
2024/04/19 04:20:27;;;;;;;;;;;;;;;11.90;53.83;99176.53;5419510;26;19936;-81
2024/04/19 04:22:52;;;;;;;;;;;;;;;11.89;53.93;99177.56;5419307;26;19929;-81
2024/04/19 04:25:17;;;;;;;;;;;;;;;11.89;54.00;99179.34;5419414;26;19932;-81
2024/04/19 04:27:42;;;;;;;;;;;;;;;11.88;53.89;99175.06;5417334;26;19929;-82
2024/04/19 04:30:08;;;;;;;;;;;;;;;11.87;54.01;99176.91;5419107;26;19933;-81
2024/04/19 04:32:33;;;;;;;;;;;;;;;11.89;53.59;99182.00;5418979;26;19929;-81
2024/04/19 04:34:59;;;;;;;;;;;;;;;11.90;53.67;99181.84;5419291;26;19929;-81
2024/04/19 04:37:24;;;;;;;;;;;;;;;11.93;53.52;99186.72;5419076;26;19936;-81
2024/04/19 04:39:49;;;;;;;;;;;;;;;12.02;53.32;99195.31;5417574;26;19936;-81
2024/04/19 04:42:14;;;;;;;;;;;;;;;11.94;52.98;99188.38;5419013;26;19940;-81
2024/04/19 04:44:40;;;;;;;;;;;;;;;11.86;53.04;99193.78;5417297;26;19998;-81
2024/04/19 04:47:05;;;;;;;;;;;;;;;11.82;53.22;99199.66;5417201;26;20378;-81
2024/04/19 04:49:30;;;;;;;;;;;;;;;11.80;53.03;99201.69;5418927;26;19936;-81
2024/04/19 04:51:56;;;;;;;;;;;;;;;11.77;52.54;99205.50;5418445;26;19969;-81
2024/04/19 04:54:21;;;;;;;;;;;;;;;11.76;53.04;99203.88;5418742;26;19940;-81
2024/04/19 04:56:46;;;;;;;;;;;;;;;11.77;53.21;99216.06;5416557;26;19929;-81
2024/04/19 04:59:12;;;;;;;;;;;;;;;11.74;52.88;99209.34;5416605;26;20378;-81
2024/04/19 05:01:37;;;;;;;;;;;;;;;11.78;52.76;99215.91;5418681;26;19936;-81
2024/04/19 05:04:02;;;;;;;;;;;;;;;11.86;52.82;99211.47;5418416;26;20363;-81
2024/04/19 05:06:27;;;;;;;;;;;;;;;11.84;52.13;99216.97;5446637;26;19929;-81
2024/04/19 05:08:53;;;;;;;;;;;;;;;11.94;52.57;99208.72;5446488;26;19929;-81
2024/04/19 05:11:18;;;;;;;;;;;;;;;11.90;51.83;99212.75;5418661;26;19929;-81
2024/04/19 05:13:43;;;;;;;;;;;;;;;11.95;51.95;99215.63;5418375;26;19933;-81
2024/04/19 05:16:09;;;;;;;;;;;;;;;12.02;52.41;99219.13;5418541;26;20259;-81
2024/04/19 05:18:34;;;;;;;;;;;;;;;12.13;51.75;99215.13;5418389;26;19933;-81
2024/04/19 05:21:00;;;;;;;;;;;;;;;12.20;51.92;99226.56;5416879;26;19929;-80
2024/04/19 05:23:25;;;;;;;;;;;;;;;12.19;51.67;99231.03;5416896;26;20000;-81
2024/04/19 05:25:51;;;;;;;;;;;;;;;12.24;51.18;99230.44;5416588;26;19936;-81
2024/04/19 05:28:16;;;;;;;;;;;;;;;12.13;49.95;99231.00;5416677;26;19933;-81
2024/04/19 05:30:42;;;;;;;;;;;;;;;12.20;50.88;99234.50;5418451;26;19929;-81
2024/04/19 05:33:07;;;;;;;;;;;;;;;12.28;51.46;99236.97;5418357;26;20399;-81
2024/04/19 05:35:32;;;;;;;;;;;;;;;12.34;51.29;99244.13;5418426;26;19935;-81
2024/04/19 05:37:58;;;;;;;;;;;;;;;12.36;51.03;99244.75;5418686;26;19929;-81
2024/04/19 05:40:23;;;;;;;;;;;;;;;12.46;50.91;99244.41;5418118;26;19935;-81
2024/04/19 05:42:51;;;;;;;;;;;;;;;12.57;50.69;99244.66;5418420;26;19940;-80
2024/04/19 05:45:16;;;;;;;;;;;;;;;12.60;50.87;99252.19;5417839;26;19930;-81
2024/04/19 05:47:41;;;;;;;;;;;;;;;12.61;50.07;99248.53;5415638;26;20270;-80
2024/04/19 05:50:07;;;;;;;;;;;;;;;12.58;50.30;99250.75;5417547;26;19959;-81
2024/04/19 05:52:32;;;;;;;;;;;;;;;12.71;50.75;99246.34;5417553;26;19998;-81
2024/04/19 05:54:57;;;;;;;;;;;;;;;12.90;50.52;99249.25;5417867;26;19940;-81
2024/04/19 05:57:23;;;;;;;;;;;;;;;13.04;50.25;99248.28;5410623;26;19936;-81
2024/04/19 05:59:48;;;;;;;;;;;;;;;13.04;49.85;99250.91;5404249;26;19937;-81
2024/04/19 06:02:13;;;;;;;;;;;;;;;13.03;49.19;99252.75;5417274;26;19936;-81
2024/04/19 06:04:38;;;;;;;;;;;;;;;13.04;49.90;99258.88;5410465;26;19937;-81
2024/04/19 06:07:04;;;;;;;;;;;;;;;13.01;50.23;99257.44;5415826;26;19929;-81
2024/04/19 06:09:29;;;;;;;;;;;;;;;13.09;50.30;99260.91;5417282;26;19929;-81
2024/04/19 06:11:54;;;;;;;;;;;;;;;13.11;49.71;99262.34;5415792;26;19998;-81
2024/04/19 06:14:20;;;;;;;;;;;;;;;13.17;49.75;99264.22;5417592;26;20074;-81
2024/04/19 06:16:45;;;;;;;;;;;;;;;13.20;49.22;99266.47;5417810;26;20372;-81
2024/04/19 06:19:10;;;;;;;;;;;;;;;13.20;48.81;99266.47;5418989;26;19970;-81
2024/04/19 06:21:35;;;;;;;;;;;;;;;13.19;48.89;99267.50;5415876;26;19929;-81
2024/04/19 06:24:01;;;;;;;;;;;;;;;13.23;48.86;99266.06;5420485;26;19929;-81
2024/04/19 06:26:26;;;;;;;;;;;;;;;13.20;47.58;99271.78;5421043;26;19929;-81
2024/04/19 06:28:53;;;;;;;;;;;;;;;13.20;48.72;99273.63;5418778;26;19936;-81
2024/04/19 06:31:18;;;;;;;;;;;;;;;13.30;48.44;99276.69;5418575;26;19936;-82
2024/04/19 06:33:44;;;;;;;;;;;;;;;13.47;48.08;99277.13;5418670;26;19929;-82
2024/04/19 06:36:09;;;;;;;;;;;;;;;13.60;48.41;99277.16;5418602;26;19936;-83
2024/04/19 06:38:35;;;;;;;;;;;;;;;13.68;48.13;99287.56;5420020;26;19929;-88
2024/04/19 06:41:00;;;;;;;;;;;;;;;13.77;46.21;99275.72;5413096;26;20267;-81
2024/04/19 06:43:26;;;;;;;;;;;;;;;13.91;46.44;99271.22;5412656;26;19929;-82
2024/04/19 06:45:51;;;;;;;;;;;;;;;13.99;46.48;99263.03;5384456;26;19953;-80
2024/04/19 06:48:17;;;;;;;;;;;;;;;14.14;46.75;99268.94;5383871;26;19933;-80
2024/04/19 06:50:42;;;;;;;;;;;;;;;14.26;45.94;99266.47;5384312;26;19936;-79
2024/04/19 06:53:07;;;;;;;;;;;;;;;14.42;45.78;99268.69;5406035;26;19929;-80
2024/04/19 06:55:32;;;;;;;;;;;;;;;14.37;45.08;99272.97;5389988;26;19936;-80
2024/04/19 06:57:58;;;;;;;;;;;;;;;14.40;45.98;99270.72;5384502;26;19958;-80
2024/04/19 07:00:23;;;;;;;;;;;;;;;14.44;45.03;99264.00;5384402;26;19936;-81
2024/04/19 07:02:49;;;;;;;;;;;;;;;14.49;45.50;99263.38;5382750;26;20371;-80
2024/04/19 07:05:15;;;;;;;;;;;;;;;14.47;45.98;99273.38;5417758;26;20360;-80
2024/04/19 07:07:40;;;;;;;;;;;;;;;14.39;45.95;99265.63;5426317;26;19929;-80
2024/04/19 07:10:06;;;;;;;;;;;;;;;14.42;45.02;99267.84;5415732;26;19937;-80
2024/04/19 07:12:31;;;;;;;;;;;;;;;14.43;45.69;99273.00;5416558;26;20378;-80
2024/04/19 07:14:57;;;;;;;;;;;;;;;14.48;45.99;99264.38;5417836;26;19929;-80
2024/04/19 07:17:22;;;;;;;;;;;;;;;14.48;45.50;99272.34;5415461;26;20370;-79
2024/04/19 07:19:47;;;;;;;;;;;;;;;14.57;45.71;99263.13;5417748;26;19940;-79
2024/04/19 07:22:14;;;;;;;;;;;;;;;14.63;44.19;99272.91;5417673;26;20320;-80
2024/04/19 07:24:39;;;;;;;;;;;;;;;14.63;44.21;99271.06;5416476;26;19928;-80
2024/04/19 07:27:05;;;;;;;;;;;;;;;14.69;44.64;99279.22;5383756;26;20287;-79
2024/04/19 07:29:30;;;;;;;;;;;;;;;14.69;44.41;99284.53;5384471;26;19930;-80
2024/04/19 07:31:55;;;;;;;;;;;;;;;14.75;43.72;99281.84;5384604;26;20259;-80
2024/04/19 07:34:21;;;;;;;;;;;;;;;14.76;43.16;99274.69;5382187;26;20288;-79
2024/04/19 07:36:46;;;;;;;;;;;;;;;14.81;43.26;99277.53;5393417;26;19929;-80
2024/04/19 07:39:11;;;;;;;;;;;;;;;14.82;41.83;99272.00;5402717;26;19935;-79
2024/04/19 07:41:36;;;;;;;;;;;;;;;14.91;43.25;99273.41;5405201;26;20351;-80
2024/04/19 07:44:02;;;;;;;;;;;;;;;15.06;43.57;99274.97;5411177;26;19937;-80
2024/04/19 07:46:27;;;;;;;;;;;;;;;15.10;42.89;99271.69;5396838;26;19936;-80
2024/04/19 07:48:52;;;;;;;;;;;;;;;15.19;42.59;99266.91;5416407;26;19929;-79
2024/04/19 07:51:17;;;;;;;;;;;;;;;15.31;42.89;99285.66;5418105;26;20362;-80
2024/04/19 07:53:43;;;;;;;;;;;;;;;15.23;40.55;99279.56;5414310;26;19935;-79
2024/04/19 07:56:08;;;;;;;;;;;;;;;15.33;40.89;99286.25;5388857;26;19937;-79
2024/04/19 07:58:33;;;;;;;;;;;;;;;15.52;42.04;99278.16;5383832;26;19939;-80
2024/04/19 08:00:58;;;;;;;;;;;;;;;15.63;42.10;99270.56;5389521;26;19937;-80
2024/04/19 08:03:24;;;;;;;;;;;;;;;15.92;41.80;99277.06;5398457;26;19929;-80
2024/04/19 08:05:50;;;;;;;;;;;;;;;15.90;40.17;99274.59;5414836;26;19929;-80
2024/04/19 08:08:16;;;;;;;;;;;;;;;15.95;40.59;99279.28;5427962;26;19933;-80
2024/04/19 08:10:41;;;;;;;;;;;;;;;15.97;40.73;99270.03;5411243;26;20347;-80
2024/04/19 08:13:08;;;;;;;;;;;;;;;16.04;40.32;99269.97;5413315;26;20222;-80
2024/04/19 08:15:33;;;;;;;;;;;;;;;15.87;38.70;99267.88;5412809;26;20675;-80
2024/04/19 08:17:58;;;;;;;;;;;;;;;15.92;40.70;99266.41;5397896;26;19979;-81
2024/04/19 08:20:23;;;;;;;;;;;;;;;16.10;40.71;99253.94;5400836;26;19998;-81
2024/04/19 08:22:50;;;;;;;;;;;;;;;16.29;38.94;99254.75;5411500;26;20251;-80
2024/04/19 08:25:15;;;;;;;;;;;;;;;16.52;40.73;99256.78;5407812;26;19929;-80
2024/04/19 08:27:41;;;;;;;;;;;;;;;16.50;38.73;99254.31;5410571;26;19929;-81
2024/04/19 08:30:07;;;;;;;;;;;;;;;16.53;38.14;99261.06;5411997;26;19929;-79
2024/04/19 08:32:32;;;;;;;;;;;;;;;16.64;38.43;99256.81;5404529;26;19936;-79
2024/04/19 08:34:58;;;;;;;;;;;;;;;16.78;38.08;99253.00;5396743;26;19952;-80
2024/04/19 08:37:24;;;;;;;;;;;;;;;16.91;38.57;99252.81;5417295;26;19932;-80
2024/04/19 08:39:52;;;;;;;;;;;;;;;17.05;38.30;99246.25;5404225;26;19978;-80
2024/04/19 08:42:19;;;;;;;;;;;;;;;17.21;37.09;99241.34;5401711;26;19933;-80
2024/04/19 08:44:46;;;;;;;;;;;;;;;17.41;38.37;99245.31;5400257;26;19929;-79
2024/04/19 08:47:14;;;;;;;;;;;;;;;17.51;36.93;99238.59;5417256;26;19937;-80
2024/04/19 08:49:40;;;;;;;;;;;;;;;17.68;36.71;99236.91;5416723;26;19939;-79
2024/04/19 08:52:07;;;;;;;;;;;;;;;17.88;35.90;99225.91;5413142;26;19996;-81
2024/04/19 08:54:33;;;;;;;;;;;;;;;18.09;36.84;99227.97;5415112;26;19952;-80
2024/04/19 08:56:59;;;;;;;;;;;;;;;18.16;36.69;99228.66;5416431;26;19929;-79
2024/04/19 08:59:25;;;;;;;;;;;;;;;18.10;35.03;99224.25;5410091;26;19937;-80
2024/04/19 09:01:50;;;;;;;;;;;;;;;18.22;35.11;99230.41;5400800;26;19957;-80
2024/04/19 09:04:15;;;;;;;;;;;;;;;18.42;36.43;99227.34;5412101;26;19933;-80
2024/04/19 09:06:42;;;;;;;;;;;;;;;18.60;36.41;99221.03;5396709;26;20281;-80
2024/04/19 09:09:08;;;;;;;;;;;;;;;18.73;34.54;99226.94;5403769;26;19952;-80
2024/04/19 09:11:37;;;;;;;;;;;;;;;18.90;33.41;99226.97;5411187;26;19933;-80
2024/04/19 09:14:02;;;;;;;;;;;;;;;18.94;31.88;99220.09;5414456;26;20772;-80
2024/04/19 09:16:29;;;;;;;;;;;;;;;18.97;33.56;99213.47;5418263;26;19929;-80
2024/04/19 09:18:56;;;;;;;;;;;;;;;19.07;34.24;99218.19;5397665;26;19956;-80
2024/04/19 09:21:22;;;;;;;;;;;;;;;19.03;34.08;99210.63;5388865;26;19937;-81
2024/04/19 09:23:47;;;;;;;;;;;;;;;19.01;32.63;99210.06;5388085;26;19930;-80
2024/04/19 09:26:12;;;;;;;;;;;;;;;19.13;32.05;99195.81;5417986;26;19933;-81
2024/04/19 09:28:37;;;;;;;;;;;;;;;19.32;31.68;99203.38;5384811;26;19933;-79
2024/04/19 09:31:04;;;;;;;;;;;;;;;19.48;31.64;99196.41;5395962;26;19928;-79
2024/04/19 09:33:29;;;;;;;;;;;;;;;19.73;32.05;99197.88;5408023;26;19929;-81
2024/04/19 09:35:56;;;;;;;;;;;;;;;19.99;32.57;99197.97;5408049;26;19987;-79
2024/04/19 09:38:22;;;;;;;;;;;;;;;20.28;31.92;99189.78;5413872;26;19964;-80
2024/04/19 09:40:47;;;;;;;;;;;;;;;20.66;32.40;99191.59;5400737;26;19945;-79
2024/04/19 09:43:17;;;;;;;;;;;;;;;21.00;32.30;99189.53;5414442;26;19929;-79
2024/04/19 09:45:43;;;;;;;;;;;;;;;21.31;34.19;99185.28;5417615;26;19941;-79
2024/04/19 09:48:14;;;;;;;;;;;;;;;21.46;33.41;99180.03;5417900;26;20419;-79
2024/04/19 09:50:40;;;;;;;;;;;;;;;21.60;32.87;99182.28;5415542;26;20293;-77
2024/04/19 09:53:09;;;;;;;;;;;;;;;21.77;31.24;99173.00;5415844;26;19937;-78
2024/04/19 09:55:41;;;;;;;;;;;;;;;21.82;32.93;99172.22;5414305;26;20012;-79
2024/04/19 09:58:07;;;;;;;;;;;;;;;21.92;28.04;99177.66;5415335;26;19936;-80
2024/04/19 10:00:32;;;;;;;;;;;;;;;22.01;29.88;99177.97;5415414;26;19929;-79
2024/04/19 10:02:59;;;;;;;;;;;;;;;22.11;28.91;99175.34;5445547;26;20366;-79
2024/04/19 10:05:25;;;;;;;;;;;;;;;21.97;28.40;99164.22;5413427;26;19935;-78
2024/04/19 10:07:50;;;;;;;;;;;;;;;21.89;29.62;99162.84;5390829;26;19930;-79
2024/04/19 10:10:16;;;;;;;;;;;;;;;21.75;28.17;99155.50;5390376;26;19936;-79
2024/04/19 10:12:41;;;;;;;;;;;;;;;21.89;30.29;99156.66;5404208;26;19937;-78
2024/04/19 10:15:11;;;;;;;;;;;;;;;22.12;27.79;99158.16;5385066;26;19948;-78
2024/04/19 10:17:36;;;;;;;;;;;;;;;21.96;29.84;99159.94;5416968;26;19929;-79
2024/04/19 10:20:03;;;;;;;;;;;;;;;22.02;27.37;99150.81;5417280;26;19979;-79
2024/04/19 10:22:29;;;;;;;;;;;;;;;22.01;28.54;99148.38;5396708;26;20331;-79
2024/04/19 10:24:58;;;;;;;;;;;;;;;22.19;29.34;99145.25;5432618;26;19965;-79
2024/04/19 10:27:25;;;;;;;;;;;;;;;22.52;30.78;99139.47;5414617;26;19929;-79
2024/04/19 10:29:50;;;;;;;;;;;;;;;22.70;32.11;99140.84;5416525;26;19929;-79
2024/04/19 10:32:17;;;;;;;;;;;;;;;22.86;31.17;99144.41;5430702;26;20254;-80
2024/04/19 10:34:42;;;;;;;;;;;;;;;22.93;31.12;99141.44;5413666;26;19957;-79
2024/04/19 10:37:07;;;;;;;;;;;;;;;23.05;30.41;99134.75;5415161;26;19936;-78
2024/04/19 10:39:34;;;;;;;;;;;;;;;23.26;29.58;99134.72;5411776;26;19937;-78
2024/04/19 10:41:59;;;;;;;;;;;;;;;23.57;29.84;99133.63;5382400;26;20295;-79
2024/04/19 10:44:26;;;;;;;;;;;;;;;23.72;28.11;99133.59;5414758;26;19929;-79
2024/04/19 10:46:52;;;;;;;;;;;;;;;23.91;29.84;99128.44;5410260;26;19959;-80
2024/04/19 10:49:20;;;;;;;;;;;;;;;23.99;28.10;99127.06;5413178;26;19929;-79
2024/04/19 10:51:46;;;;;;;;;;;;;;;24.05;29.62;99118.69;5416483;26;19967;-79
2024/04/19 10:54:12;;;;;;;;;;;;;;;24.04;28.60;99122.47;5444555;26;20002;-79
2024/04/19 10:56:37;;;;;;;;;;;;;;;23.85;27.29;99118.75;5416340;26;20369;-77
2024/04/19 10:59:02;;;;;;;;;;;;;;;23.75;26.65;99111.47;5413703;26;19940;-79
2024/04/19 11:01:28;;;;;;;;;;;;;;;23.76;27.29;99115.78;5411655;26;19936;-79
2024/04/19 11:03:53;;;;;;;;;;;;;;;23.82;26.21;99113.09;5391630;26;20373;-79
2024/04/19 11:06:18;;;;;;;;;;;;;;;23.71;28.09;99112.31;5401151;26;19941;-79
2024/04/19 11:08:44;;;;;;;;;;;;;;;23.92;25.67;99108.50;5410859;26;20307;-79
2024/04/19 11:11:10;;;;;;;;;;;;;;;24.11;28.26;99110.56;5418801;26;19937;-79
2024/04/19 11:13:38;;;;;;;;;;;;;;;24.40;26.88;99108.81;5418501;26;19937;-79
2024/04/19 11:16:04;;;;;;;;;;;;;;;24.74;26.89;99098.09;5412823;26;19975;-78
2024/04/19 11:18:29;;;;;;;;;;;;;;;25.00;26.20;99106.81;5418369;26;19940;-79
2024/04/19 11:20:55;;;;;;;;;;;;;;;24.96;26.95;99103.03;5396300;26;20371;-80
2024/04/19 11:23:20;;;;;;;;;;;;;;;24.80;26.20;99096.16;5383817;26;19930;-79
2024/04/19 11:25:45;;;;;;;;;;;;;;;24.80;26.78;99091.56;5387009;26;20006;-78
2024/04/19 11:28:11;;;;;;;;;;;;;;;24.86;25.50;99092.31;5405164;26;19936;-79
2024/04/19 11:30:40;;;;;;;;;;;;;;;25.03;25.99;99096.25;5394752;26;19929;-79
2024/04/19 11:33:10;;;;;;;;;;;;;;;24.98;27.13;99093.59;5381756;26;20316;-79
2024/04/19 11:35:40;;;;;;;;;;;;;;;24.94;25.88;99087.13;5392375;26;19929;-78
2024/04/19 11:38:05;;;;;;;;;;;;;;;25.00;24.66;99085.22;5418238;26;19929;-78
2024/04/19 11:40:31;;;;;;;;;;;;;;;24.95;26.91;99075.22;5419265;26;19929;-78
2024/04/19 11:42:56;;;;;;;;;;;;;;;24.99;26.78;99084.41;5419256;26;19935;-78
2024/04/19 11:45:21;;;;;;;;;;;;;;;24.91;26.68;99076.09;5397051;26;20002;-78
2024/04/19 11:47:47;;;;;;;;;;;;;;;24.37;27.01;99077.00;5412277;26;19941;-78
2024/04/19 11:50:13;;;;;;;;;;;;;;;23.76;26.15;99066.47;5419347;26;19999;-80
2024/04/19 11:52:38;;;;;;;;;;;;;;;23.32;25.97;99066.31;5434818;26;20277;-80
2024/04/19 11:55:04;;;;;;;;;;;;;;;23.51;26.94;99064.63;5417640;26;19936;-77
2024/04/19 11:57:29;;;;;;;;;;;;;;;23.96;26.17;99060.19;5416552;26;19945;-79
2024/04/19 11:59:54;;;;;;;;;;;;;;;24.40;26.78;99060.25;5408961;26;19941;-77
2024/04/19 12:02:20;;;;;;;;;;;;;;;24.82;26.45;99054.28;5383313;26;19936;-79
2024/04/19 12:04:45;;;;;;;;;;;;;;;24.99;24.82;99048.50;5381539;26;19936;-77
2024/04/19 12:07:10;;;;;;;;;;;;;;;24.61;25.42;99047.44;5381545;26;19930;-78
2024/04/19 12:09:37;;;;;;;;;;;;;;;24.05;26.43;99039.66;5385316;26;19929;-79
2024/04/19 12:12:03;;;;;;;;;;;;;;;23.61;25.92;99042.25;5395976;26;20354;-81
2024/04/19 12:14:34;;;;;;;;;;;;;;;23.19;28.70;99032.66;5404307;26;19945;-79
2024/04/19 12:17:00;;;;;;;;;;;;;;;22.90;25.91;99024.34;5412235;26;19929;-82
2024/04/19 12:19:25;;;;;;;;;;;;;;;23.15;28.40;99023.50;5409200;26;19929;-77
2024/04/19 12:21:50;;;;;;;;;;;;;;;23.56;26.99;99029.63;5417669;26;22356;-81
2024/04/19 12:24:16;;;;;;;;;;;;;;;23.47;27.96;99015.06;5388433;26;20384;-79
2024/04/19 12:26:42;;;;;;;;;;;;;;;23.14;27.77;99013.81;5401749;26;19933;-80
2024/04/19 12:29:07;;;;;;;;;;;;;;;23.18;28.78;98998.72;5417925;26;19933;-79
2024/04/19 12:31:35;;;;;;;;;;;;;;;23.33;27.06;99003.25;5415713;26;20466;-78
2024/04/19 12:34:00;;;;;;;;;;;;;;;23.42;26.48;98998.91;5391435;26;20259;-80
2024/04/19 12:36:26;;;;;;;;;;;;;;;23.34;26.52;98999.50;5394191;26;19930;-79
2024/04/19 12:38:51;;;;;;;;;;;;;;;23.13;27.65;98988.78;5411581;26;19961;-80
2024/04/19 12:41:16;;;;;;;;;;;;;;;22.99;28.85;98976.94;5407808;26;19940;-79
2024/04/19 12:43:42;;;;;;;;;;;;;;;22.77;28.74;98984.47;5403607;26;19932;-80